Terminal Aerodrome Forecast
Issued by NWS Hastings, NE

Home | Current Version | Previous Version | Text Only | Print | Product List | Glossary On
Versions: 1 2 3 4 5 6 7 8 9 10 11 12 13 14 15 16 17 18
000
FTUS45 KGID 262332
TAFEAR
TAF
KEAR 262332Z 2700/2724 12013G21KT P6SM VCTS BKN110CB
      TEMPO 2700/2701 2SM +TSRA OVC025CB
     FM270400 09007KT P6SM VCTS BKN025CB
     FM271000 03008KT 4SM BR VCTS BKN008CB
     FM271600 04008KT P6SM VCTS BKN015CB
      AMD LTD TO CLD VIS AND WIND=

USA.gov is the U.S. government's official web portal to all federal, state and local government web resources and services.